sensor_id;sensor_type;location;lat;lon;timestamp;pressure;altitude;pressure_sealevel;temperature;humidity
60373;BME280;46216;52.220;5.134;2023-02-13T00:02:19;103958.69;;;8.08;100.00
60373;BME280;46216;52.220;5.134;2023-02-13T00:04:45;103958.66;;;8.13;100.00
60373;BME280;46216;52.220;5.134;2023-02-13T00:07:10;103955.13;;;8.11;100.00
60373;BME280;46216;52.220;5.134;2023-02-13T00:09:36;103956.00;;;8.11;100.00
60373;BME280;46216;52.220;5.134;2023-02-13T00:12:02;103960.47;;;8.07;100.00
60373;BME280;46216;52.220;5.134;2023-02-13T00:14:28;103953.38;;;8.10;100.00
60373;BME280;46216;52.220;5.134;2023-02-13T00:16:53;103950.75;;;8.06;100.00
60373;BME280;46216;52.220;5.134;2023-02-13T00:19:18;103947.22;;;8.06;100.00
60373;BME280;46216;52.220;5.134;2023-02-13T00:21:43;103950.75;;;8.06;100.00
60373;BME280;46216;52.220;5.134;2023-02-13T00:24:09;103951.69;;;8.02;100.00
60373;BME280;46216;52.220;5.134;2023-02-13T00:26:34;103949.91;;;8.01;100.00
60373;BME280;46216;52.220;5.134;2023-02-13T00:28:59;103934.91;;;8.02;100.00
60373;BME280;46216;52.220;5.134;2023-02-13T00:31:25;103949.03;;;8.01;100.00
60373;BME280;46216;52.220;5.134;2023-02-13T00:33:50;103946.34;;;8.04;100.00
60373;BME280;46216;52.220;5.134;2023-02-13T00:36:18;103950.78;;;8.03;100.00
60373;BME280;46216;52.220;5.134;2023-02-13T00:38:45;103935.75;;;8.02;100.00
60373;BME280;46216;52.220;5.134;2023-02-13T00:41:11;103936.63;;;8.03;100.00
60373;BME280;46216;52.220;5.134;2023-02-13T00:43:36;103937.50;;;8.03;100.00
60373;BME280;46216;52.220;5.134;2023-02-13T00:46:02;103944.59;;;8.03;100.00
60373;BME280;46216;52.220;5.134;2023-02-13T00:48:29;103942.81;;;8.03;100.00
60373;BME280;46216;52.220;5.134;2023-02-13T00:50:55;103930.41;;;8.05;100.00
60373;BME280;46216;52.220;5.134;2023-02-13T00:53:23;103932.13;;;8.10;100.00
60373;BME280;46216;52.220;5.134;2023-02-13T00:55:49;103930.38;;;8.09;100.00
60373;BME280;46216;52.220;5.134;2023-02-13T00:58:15;103932.16;;;8.06;100.00
60373;BME280;46216;52.220;5.134;2023-02-13T01:00:41;103934.75;;;8.11;100.00
60373;BME280;46216;52.220;5.134;2023-02-13T01:03:07;103926.81;;;8.10;100.00
60373;BME280;46216;52.220;5.134;2023-02-13T01:05:32;103928.56;;;8.11;100.00
60373;BME280;46216;52.220;5.134;2023-02-13T01:07:58;103931.19;;;8.14;100.00
60373;BME280;46216;52.220;5.134;2023-02-13T01:10:24;103929.44;;;8.13;100.00
60373;BME280;46216;52.220;5.134;2023-02-13T01:12:49;103937.44;;;8.10;100.00
60373;BME280;46216;52.220;5.134;2023-02-13T01:15:16;103929.53;;;8.05;100.00
60373;BME280;46216;52.220;5.134;2023-02-13T01:17:41;103929.53;;;8.03;100.00
60373;BME280;46216;52.220;5.134;2023-02-13T01:20:09;103935.75;;;8.01;100.00
60373;BME280;46216;52.220;5.134;2023-02-13T01:22:35;103933.06;;;8.04;100.00
60373;BME280;46216;52.220;5.134;2023-02-13T01:25:00;103933.16;;;7.99;100.00
60373;BME280;46216;52.220;5.134;2023-02-13T01:27:27;103926.97;;;7.97;100.00
60373;BME280;46216;52.220;5.134;2023-02-13T01:29:53;103921.69;;;7.94;100.00
60373;BME280;46216;52.220;5.134;2023-02-13T01:32:18;103922.56;;;7.96;100.00
60373;BME280;46216;52.220;5.134;2023-02-13T01:34:44;103921.59;;;8.00;100.00
60373;BME280;46216;52.220;5.134;2023-02-13T01:37:09;103928.75;;;7.98;100.00
60373;BME280;46216;52.220;5.134;2023-02-13T01:39:34;103920.81;;;7.94;100.00
60373;BME280;46216;52.220;5.134;2023-02-13T01:42:00;103918.16;;;7.95;100.00
60373;BME280;46216;52.220;5.134;2023-02-13T01:49:49;103931.44;;;7.95;100.00
60373;BME280;46216;52.220;5.134;2023-02-13T01:52:18;103927.94;;;7.92;100.00
60373;BME280;46216;52.220;5.134;2023-02-13T01:54:44;103915.50;;;7.94;100.00
60373;BME280;46216;52.220;5.134;2023-02-13T01:57:17;103914.63;;;7.93;100.00
60373;BME280;46216;52.220;5.134;2023-02-13T02:00:04;103917.34;;;7.89;100.00
60373;BME280;46216;52.220;5.134;2023-02-13T02:02:35;103914.66;;;7.90;100.00
60373;BME280;46216;52.220;5.134;2023-02-13T02:05:02;103908.47;;;7.90;100.00
60373;BME280;46216;52.220;5.134;2023-02-13T02:07:29;103914.69;;;7.87;100.00
60373;BME280;46216;52.220;5.134;2023-02-13T02:09:59;103916.47;;;7.88;100.00
60373;BME280;46216;52.220;5.134;2023-02-13T02:12:31;103900.53;;;7.88;100.00
60373;BME280;46216;52.220;5.134;2023-02-13T02:15:00;103909.38;;;7.87;100.00
60373;BME280;46216;52.220;5.134;2023-02-13T02:17:26;103912.94;;;7.86;100.00
60373;BME280;46216;52.220;5.134;2023-02-13T02:28:47;103921.88;;;7.79;100.00
60373;BME280;46216;52.220;5.134;2023-02-13T02:32:01;103918.31;;;7.80;100.00
60373;BME280;46216;52.220;5.134;2023-02-13T02:40:02;103904.19;;;7.76;100.00
60373;BME280;46216;52.220;5.134;2023-02-13T02:42:37;103894.50;;;7.75;100.00
60373;BME280;46216;52.220;5.134;2023-02-13T02:45:16;103892.72;;;7.74;100.00
60373;BME280;46216;52.220;5.134;2023-02-13T02:47:53;103891.81;;;7.77;100.00
60373;BME280;46216;52.220;5.134;2023-02-13T02:50:53;103900.69;;;7.73;100.00
60373;BME280;46216;52.220;5.134;2023-02-13T02:53:32;103903.31;;;7.74;100.00
60373;BME280;46216;52.220;5.134;2023-02-13T02:58:38;103896.19;;;7.79;100.00
60373;BME280;46216;52.220;5.134;2023-02-13T03:01:27;103897.09;;;7.77;100.00
60373;BME280;46216;52.220;5.134;2023-02-13T03:04:17;103890.94;;;7.78;100.00
60373;BME280;46216;52.220;5.134;2023-02-13T03:07:06;103898.91;;;7.75;100.00
60373;BME280;46216;52.220;5.134;2023-02-13T03:09:36;103902.38;;;7.80;100.00
60373;BME280;46216;52.220;5.134;2023-02-13T03:12:26;103892.72;;;7.74;100.00
60373;BME280;46216;52.220;5.134;2023-02-13T03:15:12;103898.91;;;7.75;100.00
60373;BME280;46216;52.220;5.134;2023-02-13T03:17:38;103890.06;;;7.76;100.00
60373;BME280;46216;52.220;5.134;2023-02-13T03:32:16;103906.03;;;7.70;100.00
60373;BME280;46216;52.220;5.134;2023-02-13T03:34:55;103905.16;;;7.69;100.00
60373;BME280;46216;52.220;5.134;2023-02-13T03:37:43;103896.34;;;7.69;100.00
60373;BME280;46216;52.220;5.134;2023-02-13T03:40:25;103891.88;;;7.71;100.00
60373;BME280;46216;52.220;5.134;2023-02-13T03:45:36;103902.44;;;7.74;100.00
60373;BME280;46216;52.220;5.134;2023-02-13T03:48:33;103891.84;;;7.74;100.00
60373;BME280;46216;52.220;5.134;2023-02-13T03:51:23;103888.31;;;7.75;100.00
60373;BME280;46216;52.220;5.134;2023-02-13T03:53:55;103895.44;;;7.70;100.00
60373;BME280;46216;52.220;5.134;2023-02-13T03:56:22;103890.97;;;7.75;100.00
60373;BME280;46216;52.220;5.134;2023-02-13T03:59:17;103878.56;;;7.75;100.00
60373;BME280;46216;52.220;5.134;2023-02-13T04:01:52;103889.16;;;7.78;100.00
60373;BME280;46216;52.220;5.134;2023-02-13T04:04:26;103885.66;;;7.73;100.00
60373;BME280;46216;52.220;5.134;2023-02-13T04:07:04;103882.09;;;7.76;100.00
60373;BME280;46216;52.220;5.134;2023-02-13T04:09:35;103883.00;;;7.75;100.00
60373;BME280;46216;52.220;5.134;2023-02-13T04:12:11;103881.19;;;7.77;100.00
60373;BME280;46216;52.220;5.134;2023-02-13T04:14:47;103892.66;;;7.79;100.00
60373;BME280;46216;52.220;5.134;2023-02-13T04:17:20;103881.16;;;7.80;100.00
60373;BME280;46216;52.220;5.134;2023-02-13T04:19:47;103883.78;;;7.80;100.00
60373;BME280;46216;52.220;5.134;2023-02-13T04:22:13;103882.97;;;7.78;100.00
60373;BME280;46216;52.220;5.134;2023-02-13T04:24:38;103878.50;;;7.80;100.00
60373;BME280;46216;52.220;5.134;2023-02-13T04:27:03;103883.78;;;7.80;100.00
60373;BME280;46216;52.220;5.134;2023-02-13T04:29:29;103885.63;;;7.78;100.00
60373;BME280;46216;52.220;5.134;2023-02-13T04:31:54;103879.44;;;7.76;100.00
60373;BME280;46216;52.220;5.134;2023-02-13T04:34:19;103872.41;;;7.72;100.00
60373;BME280;46216;52.220;5.134;2023-02-13T04:36:45;103877.75;;;7.69;100.00
60373;BME280;46216;52.220;5.134;2023-02-13T04:39:11;103879.47;;;7.73;100.00
60373;BME280;46216;52.220;5.134;2023-02-13T04:41:36;103880.34;;;7.73;100.00
60373;BME280;46216;52.220;5.134;2023-02-13T04:44:02;103882.97;;;7.78;100.00
60373;BME280;46216;52.220;5.134;2023-02-13T04:46:27;103877.69;;;7.75;100.00
60373;BME280;46216;52.220;5.134;2023-02-13T04:48:53;103871.47;;;7.74;100.00
60373;BME280;46216;52.220;5.134;2023-02-13T04:51:18;103875.91;;;7.75;100.00
60373;BME280;46216;52.220;5.134;2023-02-13T04:53:43;103873.28;;;7.72;100.00
60373;BME280;46216;52.220;5.134;2023-02-13T04:56:09;103874.16;;;7.73;100.00
60373;BME280;46216;52.220;5.134;2023-02-13T04:58:34;103867.13;;;7.69;100.00
60373;BME280;46216;52.220;5.134;2023-02-13T05:00:59;103872.44;;;7.69;100.00
60373;BME280;46216;52.220;5.134;2023-02-13T05:03:25;103876.00;;;7.68;100.00
60373;BME280;46216;52.220;5.134;2023-02-13T05:05:50;103863.59;;;7.67;100.00
60373;BME280;46216;52.220;5.134;2023-02-13T05:08:15;103864.47;;;7.67;100.00
60373;BME280;46216;52.220;5.134;2023-02-13T05:10:41;103860.94;;;7.67;100.00
60373;BME280;46216;52.220;5.134;2023-02-13T05:13:06;103861.84;;;7.66;100.00
60373;BME280;46216;52.220;5.134;2023-02-13T05:15:32;103857.47;;;7.62;100.00
60373;BME280;46216;52.220;5.134;2023-02-13T05:17:57;103857.44;;;7.63;100.00
60373;BME280;46216;52.220;5.134;2023-02-13T05:20:23;103859.25;;;7.61;100.00
60373;BME280;46216;52.220;5.134;2023-02-13T05:22:50;103861.84;;;7.64;100.00
60373;BME280;46216;52.220;5.134;2023-02-13T05:25:36;103866.28;;;7.65;100.00
60373;BME280;46216;52.220;5.134;2023-02-13T05:28:02;103857.44;;;7.63;100.00
60373;BME280;46216;52.220;5.134;2023-02-13T05:30:28;103859.19;;;7.66;100.00
60373;BME280;46216;52.220;5.134;2023-02-13T05:32:53;103862.75;;;7.65;100.00
60373;BME280;46216;52.220;5.134;2023-02-13T05:35:20;103863.56;;;7.70;100.00
60373;BME280;46216;52.220;5.134;2023-02-13T05:37:45;103861.81;;;7.69;100.00
60373;BME280;46216;52.220;5.134;2023-02-13T05:40:11;103864.47;;;7.67;100.00
60373;BME280;46216;52.220;5.134;2023-02-13T05:42:38;103855.63;;;7.67;100.00
60373;BME280;46216;52.220;5.134;2023-02-13T05:45:04;103863.59;;;7.68;100.00
60373;BME280;46216;52.220;5.134;2023-02-13T05:47:29;103861.81;;;7.69;100.00
60373;BME280;46216;52.220;5.134;2023-02-13T05:49:55;103867.09;;;7.70;100.00
60373;BME280;46216;52.220;5.134;2023-02-13T05:52:20;103865.34;;;7.69;100.00
60373;BME280;46216;52.220;5.134;2023-02-13T05:54:45;103861.78;;;7.72;100.00
60373;BME280;46216;52.220;5.134;2023-02-13T05:57:11;103863.56;;;7.70;100.00
60373;BME280;46216;52.220;5.134;2023-02-13T05:59:36;103864.44;;;7.70;100.00
60373;BME280;46216;52.220;5.134;2023-02-13T06:02:01;103867.13;;;7.69;100.00
60373;BME280;46216;52.220;5.134;2023-02-13T06:04:27;103874.19;;;7.71;100.00
60373;BME280;46216;52.220;5.134;2023-02-13T06:06:52;103875.91;;;7.74;100.00
60373;BME280;46216;52.220;5.134;2023-02-13T06:09:17;103868.81;;;7.76;100.00
60373;BME280;46216;52.220;5.134;2023-02-13T06:11:43;103870.56;;;7.77;100.00
60373;BME280;46216;52.220;5.134;2023-02-13T06:14:09;103873.22;;;7.77;100.00
60373;BME280;46216;52.220;5.134;2023-02-13T06:16:34;103865.22;;;7.81;100.00
60373;BME280;46216;52.220;5.134;2023-02-13T06:19:00;103866.00;;;7.87;100.00
60373;BME280;46216;52.220;5.134;2023-02-13T06:21:25;103861.56;;;7.87;100.00
60373;BME280;46216;52.220;5.134;2023-02-13T06:23:50;103873.06;;;7.88;100.00
60373;BME280;46216;52.220;5.134;2023-02-13T06:26:16;103870.41;;;7.89;100.00
60373;BME280;46216;52.220;5.134;2023-02-13T06:28:41;103873.97;;;7.88;100.00
60373;BME280;46216;52.220;5.134;2023-02-13T06:31:06;103875.72;;;7.89;100.00
60373;BME280;46216;52.220;5.134;2023-02-13T06:33:32;103876.59;;;7.90;100.00
60373;BME280;46216;52.220;5.134;2023-02-13T06:35:57;103873.94;;;7.90;100.00
60373;BME280;46216;52.220;5.134;2023-02-13T06:38:22;103876.59;;;7.90;100.00
60373;BME280;46216;52.220;5.134;2023-02-13T06:40:48;103870.41;;;7.89;100.00
60373;BME280;46216;52.220;5.134;2023-02-13T06:43:14;103877.50;;;7.87;100.00
60373;BME280;46216;52.220;5.134;2023-02-13T06:45:40;103880.13;;;7.90;100.00
60373;BME280;46216;52.220;5.134;2023-02-13T06:48:05;103869.56;;;7.86;100.00
60373;BME280;46216;52.220;5.134;2023-02-13T06:50:31;103874.88;;;7.86;100.00
60373;BME280;46216;52.220;5.134;2023-02-13T06:52:56;103873.97;;;7.88;100.00
60373;BME280;46216;52.220;5.134;2023-02-13T06:55:21;103867.75;;;7.89;100.00
60373;BME280;46216;52.220;5.134;2023-02-13T06:57:47;103870.41;;;7.89;100.00
60373;BME280;46216;52.220;5.134;2023-02-13T07:00:14;103877.50;;;7.89;100.00
60373;BME280;46216;52.220;5.134;2023-02-13T07:02:40;103885.44;;;7.92;100.00
60373;BME280;46216;52.220;5.134;2023-02-13T07:05:06;103883.72;;;7.86;100.00
60373;BME280;46216;52.220;5.134;2023-02-13T07:07:34;103877.47;;;7.90;100.00
60373;BME280;46216;52.220;5.134;2023-02-13T07:10:00;103878.34;;;7.91;100.00
60373;BME280;46216;52.220;5.134;2023-02-13T07:12:26;103870.38;;;7.91;100.00
60373;BME280;46216;52.220;5.134;2023-02-13T07:14:51;103877.50;;;7.87;100.00
60373;BME280;46216;52.220;5.134;2023-02-13T07:17:16;103883.69;;;7.89;100.00
60373;BME280;46216;52.220;5.134;2023-02-13T07:19:42;103888.97;;;7.92;100.00
60373;BME280;46216;52.220;5.134;2023-02-13T07:22:07;103879.19;;;7.94;100.00
60373;BME280;46216;52.220;5.134;2023-02-13T07:24:32;103880.94;;;7.98;100.00
60373;BME280;46216;52.220;5.134;2023-02-13T07:26:59;103881.78;;;8.00;100.00
60373;BME280;46216;52.220;5.134;2023-02-13T07:29:25;103891.44;;;8.04;100.00
60373;BME280;46216;52.220;5.134;2023-02-13T07:31:50;103887.03;;;8.03;100.00
60373;BME280;46216;52.220;5.134;2023-02-13T07:34:16;103889.69;;;8.05;100.00
60373;BME280;46216;52.220;5.134;2023-02-13T07:36:41;103894.97;;;8.06;100.00
60373;BME280;46216;52.220;5.134;2023-02-13T07:39:06;103890.53;;;8.09;100.00
60373;BME280;46216;52.220;5.134;2023-02-13T07:41:32;103897.66;;;8.03;100.00
60373;BME280;46216;52.220;5.134;2023-02-13T07:43:57;103894.06;;;8.07;100.00
60373;BME280;46216;52.220;5.134;2023-02-13T07:46:22;103898.44;;;8.12;100.00
60373;BME280;46216;52.220;5.134;2023-02-13T07:48:50;103901.97;;;8.14;100.00
60373;BME280;46216;52.220;5.134;2023-02-13T07:51:16;103900.13;;;8.19;100.00
60373;BME280;46216;52.220;5.134;2023-02-13T07:53:41;103902.84;;;8.16;100.00
60373;BME280;46216;52.220;5.134;2023-02-13T07:56:08;103908.06;;;8.20;100.00
60373;BME280;46216;52.220;5.134;2023-02-13T07:58:35;103909.78;;;8.24;100.00
60373;BME280;46216;52.220;5.134;2023-02-13T08:01:08;103911.56;;;8.24;100.00
60373;BME280;46216;52.220;5.134;2023-02-13T08:03:34;103915.91;;;8.31;100.00
60373;BME280;46216;52.220;5.134;2023-02-13T08:06:00;103918.59;;;8.29;100.00
60373;BME280;46216;52.220;5.134;2023-02-13T08:08:25;103923.88;;;8.31;100.00
60373;BME280;46216;52.220;5.134;2023-02-13T08:10:51;103923.88;;;8.31;100.00
60373;BME280;46216;52.220;5.134;2023-02-13T08:13:35;103925.59;;;8.34;100.00
60373;BME280;46216;52.220;5.134;2023-02-13T08:16:01;103932.66;;;8.36;100.00
60373;BME280;46216;52.220;5.134;2023-02-13T08:18:26;103930.00;;;8.36;100.00
60373;BME280;46216;52.220;5.134;2023-02-13T08:20:52;103927.28;;;8.42;100.00
60373;BME280;46216;52.220;5.134;2023-02-13T08:23:17;103931.69;;;8.46;100.00
60373;BME280;46216;52.220;5.134;2023-02-13T08:25:42;103931.59;;;8.52;100.00
60373;BME280;46216;52.220;5.134;2023-02-13T08:28:07;103926.19;;;8.56;100.00
60373;BME280;46216;52.220;5.134;2023-02-13T08:30:33;103926.13;;;8.62;100.00
60373;BME280;46216;52.220;5.134;2023-02-13T08:32:58;103924.28;;;8.67;100.00
60373;BME280;46216;52.220;5.134;2023-02-13T08:35:24;103920.66;;;8.71;100.00
60373;BME280;46216;52.220;5.134;2023-02-13T08:37:53;103918.81;;;8.76;100.00
60373;BME280;46216;52.220;5.134;2023-02-13T08:40:19;103917.75;;;8.88;100.00
60373;BME280;46216;52.220;5.134;2023-02-13T08:42:44;103923.81;;;8.96;100.00
60373;BME280;46216;52.220;5.134;2023-02-13T08:45:09;103924.69;;;8.96;100.00
60373;BME280;46216;52.220;5.134;2023-02-13T08:47:36;103926.41;;;8.99;100.00
60373;BME280;46216;52.220;5.134;2023-02-13T08:50:02;103917.66;;;8.94;100.00
60373;BME280;46216;52.220;5.134;2023-02-13T08:52:27;103922.09;;;8.93;100.00
60373;BME280;46216;52.220;5.134;2023-02-13T08:54:53;103923.78;;;8.97;100.00
60373;BME280;46216;52.220;5.134;2023-02-13T08:57:19;103921.16;;;8.96;100.00
60373;BME280;46216;52.220;5.134;2023-02-13T08:59:44;103921.97;;;8.99;100.00
60373;BME280;46216;52.220;5.134;2023-02-13T09:02:10;103923.56;;;9.10;100.00
60373;BME280;46216;52.220;5.134;2023-02-13T09:04:36;103931.47;;;9.16;100.00
60373;BME280;46216;52.220;5.134;2023-02-13T09:07:01;103925.06;;;9.26;100.00
60373;BME280;46216;52.220;5.134;2023-02-13T09:09:26;103930.34;;;9.29;100.00
60373;BME280;46216;52.220;5.134;2023-02-13T09:11:51;103923.03;;;9.40;100.00
60373;BME280;46216;52.220;5.134;2023-02-13T09:14:20;103921.13;;;9.48;100.00
60373;BME280;46216;52.220;5.134;2023-02-13T09:16:45;103915.69;;;9.55;100.00
60373;BME280;46216;52.220;5.134;2023-02-13T09:19:11;103919.13;;;9.60;100.00
60373;BME280;46216;52.220;5.134;2023-02-13T09:21:36;103908.47;;;9.60;100.00
60373;BME280;46216;52.220;5.134;2023-02-13T09:24:01;103911.94;;;9.63;100.00
60373;BME280;46216;52.220;5.134;2023-02-13T09:26:27;103908.31;;;9.69;100.00
60373;BME280;46216;52.220;5.134;2023-02-13T09:28:52;103915.22;;;9.78;100.00
60373;BME280;46216;52.220;5.134;2023-02-13T09:31:19;103911.66;;;9.77;100.00
60373;BME280;46216;52.220;5.134;2023-02-13T09:33:46;103910.56;;;9.87;100.00
60373;BME280;46216;52.220;5.134;2023-02-13T09:36:17;103901.59;;;9.93;100.00
60373;BME280;46216;52.220;5.134;2023-02-13T09:38:44;103900.66;;;9.95;100.00
60373;BME280;46216;52.220;5.134;2023-02-13T09:41:25;103909.47;;;9.99;100.00
60373;BME280;46216;52.220;5.134;2023-02-13T09:43:56;103899.56;;;10.04;100.00
60373;BME280;46216;52.220;5.134;2023-02-13T09:46:32;103902.16;;;10.07;100.00
60373;BME280;46216;52.220;5.134;2023-02-13T09:49:02;103906.53;;;10.11;100.00
60373;BME280;46216;52.220;5.134;2023-02-13T09:51:30;103905.59;;;10.14;100.00
60373;BME280;46216;52.220;5.134;2023-02-13T09:53:58;103909.09;;;10.16;100.00
60373;BME280;46216;52.220;5.134;2023-02-13T09:56:38;103903.78;;;10.14;100.00
60373;BME280;46216;52.220;5.134;2023-02-13T09:59:14;103904.44;;;10.27;100.00
60373;BME280;46216;52.220;5.134;2023-02-13T10:01:46;103896.78;;;10.51;100.00
60373;BME280;46216;52.220;5.134;2023-02-13T10:04:20;103891.78;;;10.74;100.00
60373;BME280;46216;52.220;5.134;2023-02-13T10:06:54;103889.50;;;10.95;100.00
60373;BME280;46216;52.220;5.134;2023-02-13T10:09:33;103882.34;;;10.95;100.00
60373;BME280;46216;52.220;5.134;2023-02-13T10:15:19;103880.19;;;11.11;100.00
60373;BME280;46216;52.220;5.134;2023-02-13T10:18:02;103883.59;;;11.16;100.00
60373;BME280;46216;52.220;5.134;2023-02-13T10:20:44;103890.34;;;11.29;100.00
60373;BME280;46216;52.220;5.134;2023-02-13T10:23:28;103878.59;;;11.36;100.00
60373;BME280;46216;52.220;5.134;2023-02-13T10:25:58;103878.13;;;11.53;100.00
60373;BME280;46216;52.220;5.134;2023-02-13T10:28:32;103880.09;;;11.47;100.00
60373;BME280;46216;52.220;5.134;2023-02-13T10:31:04;103870.88;;;11.58;100.00
60373;BME280;46216;52.220;5.134;2023-02-13T10:33:37;103871.28;;;11.74;100.00
60373;BME280;46216;52.220;5.134;2023-02-13T10:38:37;103869.00;;;11.92;100.00
60373;BME280;46216;52.220;5.134;2023-02-13T10:41:22;103853.56;;;12.01;100.00
60373;BME280;46216;52.220;5.134;2023-02-13T10:43:53;103860.03;;;12.24;100.00
60373;BME280;46216;52.220;5.134;2023-02-13T10:46:37;103856.75;;;12.42;100.00
60373;BME280;46216;52.220;5.134;2023-02-13T10:49:31;103854.16;;;12.67;100.00
60373;BME280;46216;52.220;5.134;2023-02-13T10:58:17;103848.25;;;13.09;100.00
60373;BME280;46216;52.220;5.134;2023-02-13T11:03:29;103848.34;;;13.33;100.00
60373;BME280;46216;52.220;5.134;2023-02-13T11:05:56;103837.31;;;13.42;100.00
60373;BME280;46216;52.220;5.134;2023-02-13T11:10:55;103823.50;;;13.53;100.00
60373;BME280;46216;52.220;5.134;2023-02-13T11:13:22;103832.63;;;13.70;100.00
60373;BME280;46216;52.220;5.134;2023-02-13T11:16:04;103828.91;;;13.75;100.00
60373;BME280;46216;52.220;5.134;2023-02-13T11:18:32;103826.44;;;13.68;100.00
60373;BME280;46216;52.220;5.134;2023-02-13T11:21:01;103822.09;;;13.89;100.00
60373;BME280;46216;52.220;5.134;2023-02-13T11:26:05;103810.22;;;13.95;100.00
60373;BME280;46216;52.220;5.134;2023-02-13T11:28:49;103809.75;;;14.07;100.00
60373;BME280;46216;52.220;5.134;2023-02-13T11:31:21;103796.16;;;14.12;100.00
60373;BME280;46216;52.220;5.134;2023-02-13T11:33:47;103805.88;;;14.14;100.00
60373;BME280;46216;52.220;5.134;2023-02-13T11:36:15;103796.47;;;14.04;100.00
60373;BME280;46216;52.220;5.134;2023-02-13T11:38:40;103791.22;;;14.01;100.00
60373;BME280;46216;52.220;5.134;2023-02-13T11:41:08;103788.53;;;14.23;100.00
60373;BME280;46216;52.220;5.134;2023-02-13T11:43:47;103779.06;;;14.14;100.00
60373;BME280;46216;52.220;5.134;2023-02-13T11:46:22;103775.97;;;14.03;100.00
60373;BME280;46216;52.220;5.134;2023-02-13T11:49:21;103778.91;;;13.95;100.00
60373;BME280;46216;52.220;5.134;2023-02-13T11:51:49;103777.94;;;13.98;100.00
60373;BME280;46216;52.220;5.134;2023-02-13T11:57:23;103772.19;;;13.85;100.00
60373;BME280;46216;52.220;5.134;2023-02-13T11:59:52;103768.94;;;13.77;100.00
60373;BME280;46216;52.220;5.134;2023-02-13T12:02:28;103765.69;;;13.69;100.00
60373;BME280;46216;52.220;5.134;2023-02-13T12:07:42;103762.00;;;13.71;100.00
60373;BME280;46216;52.220;5.134;2023-02-13T12:10:18;103762.59;;;13.80;100.00
60373;BME280;46216;52.220;5.134;2023-02-13T12:12:51;103760.81;;;13.79;100.00
60373;BME280;46216;52.220;5.134;2023-02-13T12:15:19;103762.72;;;13.77;100.00
60373;BME280;46216;52.220;5.134;2023-02-13T12:17:49;103761.66;;;13.81;100.00
60373;BME280;46216;52.220;5.134;2023-02-13T12:20:19;103764.25;;;13.60;100.00
60373;BME280;46216;52.220;5.134;2023-02-13T12:23:05;103763.38;;;13.82;100.00
60373;BME280;46216;52.220;5.134;2023-02-13T12:25:41;103765.41;;;13.53;100.00
60373;BME280;46216;52.220;5.134;2023-02-13T12:31:19;103749.09;;;13.59;100.00
60373;BME280;46216;52.220;5.134;2023-02-13T12:34:16;103746.00;;;13.46;100.00
60373;BME280;46216;52.220;5.134;2023-02-13T12:37:18;103757.19;;;13.58;100.00
60373;BME280;46216;52.220;5.134;2023-02-13T12:51:01;103743.38;;;13.45;100.00
60373;BME280;46216;52.220;5.134;2023-02-13T12:56:49;103739.44;;;13.32;100.00
60373;BME280;46216;52.220;5.134;2023-02-13T12:59:28;103740.66;;;13.46;100.00
60373;BME280;46216;52.220;5.134;2023-02-13T13:24:14;103712.59;;;12.85;100.00
60373;BME280;46216;52.220;5.134;2023-02-13T13:26:45;103711.88;;;12.79;100.00
60373;BME280;46216;52.220;5.134;2023-02-13T13:29:20;103707.84;;;12.68;100.00
60373;BME280;46216;52.220;5.134;2023-02-13T13:31:54;103702.38;;;12.71;100.00
60373;BME280;46216;52.220;5.134;2023-02-13T13:34:23;103697.94;;;12.70;100.00
60373;BME280;46216;52.220;5.134;2023-02-13T13:37:04;103701.44;;;12.72;100.00
60373;BME280;46216;52.220;5.134;2023-02-13T13:45:40;103691.59;;;12.74;100.00
60373;BME280;46216;52.220;5.134;2023-02-13T13:50:53;103684.19;;;12.81;100.00
60373;BME280;46216;52.220;5.134;2023-02-13T13:53:20;103682.41;;;12.81;100.00
60373;BME280;46216;52.220;5.134;2023-02-13T13:58:36;103673.25;;;12.87;100.00
60373;BME280;46216;52.220;5.134;2023-02-13T14:01:27;103680.47;;;12.85;100.00
60373;BME280;46216;52.220;5.134;2023-02-13T14:03:58;103669.06;;;12.79;100.00
60373;BME280;46216;52.220;5.134;2023-02-13T14:09:39;103669.56;;;12.91;100.00
60373;BME280;46216;52.220;5.134;2023-02-13T14:14:48;103661.91;;;13.03;100.00
60373;BME280;46216;52.220;5.134;2023-02-13T14:17:15;103659.59;;;13.18;100.00
60373;BME280;46216;52.220;5.134;2023-02-13T14:19:46;103658.44;;;13.25;100.00
60373;BME280;46216;52.220;5.134;2023-02-13T14:24:55;103660.31;;;13.45;100.00
60373;BME280;46216;52.220;5.134;2023-02-13T14:27:38;103660.59;;;13.61;100.00
60373;BME280;46216;52.220;5.134;2023-02-13T14:30:28;103657.09;;;13.81;100.00
60373;BME280;46216;52.220;5.134;2023-02-13T14:32:54;103650.94;;;13.99;100.00
60373;BME280;46216;52.220;5.134;2023-02-13T14:35:25;103647.50;;;14.17;100.00
60373;BME280;46216;52.220;5.134;2023-02-13T14:37:54;103645.91;;;14.34;100.00
60373;BME280;46216;52.220;5.134;2023-02-13T14:42:50;103653.00;;;14.76;100.00
60373;BME280;46216;52.220;5.134;2023-02-13T14:45:20;103651.84;;;15.00;100.00
60373;BME280;46216;52.220;5.134;2023-02-13T14:47:50;103650.69;;;15.25;100.00
60373;BME280;46216;52.220;5.134;2023-02-13T14:52:54;103645.41;;;15.42;100.00
60373;BME280;46216;52.220;5.134;2023-02-13T14:56:07;103641.63;;;15.46;100.00
60373;BME280;46216;52.220;5.134;2023-02-13T14:58:48;103644.34;;;15.64;100.00
60373;BME280;46216;52.220;5.134;2023-02-13T15:01:25;103645.72;;;15.72;100.00
60373;BME280;46216;52.220;5.134;2023-02-13T15:03:57;103643.59;;;15.79;100.00
60373;BME280;46216;52.220;5.134;2023-02-13T15:06:34;103641.06;;;15.76;100.00
60373;BME280;46216;52.220;5.134;2023-02-13T15:09:05;103637.28;;;15.80;100.00
60373;BME280;46216;52.220;5.134;2023-02-13T15:11:41;103636.25;;;15.82;100.00